sensor_id;sensor_type;location;lat;lon;timestamp;P1;P2;P0
39955;PMS5003;25631;51.516;-0.470;2023-04-03T00:01:44;10;8;
39955;PMS5003;25631;51.516;-0.470;2023-04-03T00:04:20;9;7;
39955;PMS5003;25631;51.516;-0.470;2023-04-03T00:06:57;11;11;
39955;PMS5003;25631;51.516;-0.470;2023-04-03T00:09:33;14;13;
39955;PMS5003;25631;51.516;-0.470;2023-04-03T00:12:10;15;14;
39955;PMS5003;25631;51.516;-0.470;2023-04-03T00:14:46;16;14;
39955;PMS5003;25631;51.516;-0.470;2023-04-03T00:17:23;12;10;
39955;PMS5003;25631;51.516;-0.470;2023-04-03T00:19:59;11;10;
39955;PMS5003;25631;51.516;-0.470;2023-04-03T00:22:36;9;8;
39955;PMS5003;25631;51.516;-0.470;2023-04-03T00:25:12;8;6;
39955;PMS5003;25631;51.516;-0.470;2023-04-03T00:27:49;6;6;
39955;PMS5003;25631;51.516;-0.470;2023-04-03T00:30:25;7;7;
39955;PMS5003;25631;51.516;-0.470;2023-04-03T00:33:02;10;9;
39955;PMS5003;25631;51.516;-0.470;2023-04-03T00:35:39;10;9;
39955;PMS5003;25631;51.516;-0.470;2023-04-03T00:38:16;11;10;
39955;PMS5003;25631;51.516;-0.470;2023-04-03T00:40:53;14;10;
39955;PMS5003;25631;51.516;-0.470;2023-04-03T00:43:29;13;9;
39955;PMS5003;25631;51.516;-0.470;2023-04-03T00:46:06;12;8;
39955;PMS5003;25631;51.516;-0.470;2023-04-03T00:48:43;13;9;
39955;PMS5003;25631;51.516;-0.470;2023-04-03T00:51:22;12;9;
39955;PMS5003;25631;51.516;-0.470;2023-04-03T00:54:00;11;10;
39955;PMS5003;25631;51.516;-0.470;2023-04-03T00:56:40;10;9;
39955;PMS5003;25631;51.516;-0.470;2023-04-03T00:59:18;8;8;
39955;PMS5003;25631;51.516;-0.470;2023-04-03T01:01:59;9;9;
39955;PMS5003;25631;51.516;-0.470;2023-04-03T01:04:37;9;9;
39955;PMS5003;25631;51.516;-0.470;2023-04-03T01:07:16;9;9;
39955;PMS5003;25631;51.516;-0.470;2023-04-03T01:09:56;10;9;
39955;PMS5003;25631;51.516;-0.470;2023-04-03T01:12:37;10;9;
39955;PMS5003;25631;51.516;-0.470;2023-04-03T01:15:15;9;8;
39955;PMS5003;25631;51.516;-0.470;2023-04-03T01:17:54;10;8;
39955;PMS5003;25631;51.516;-0.470;2023-04-03T01:20:55;8;8;
39955;PMS5003;25631;51.516;-0.470;2023-04-03T01:23:56;8;7;
39955;PMS5003;25631;51.516;-0.470;2023-04-03T01:26:39;9;8;
39955;PMS5003;25631;51.516;-0.470;2023-04-03T01:29:16;9;8;
39955;PMS5003;25631;51.516;-0.470;2023-04-03T01:31:53;10;9;
39955;PMS5003;25631;51.516;-0.470;2023-04-03T01:34:32;11;10;
39955;PMS5003;25631;51.516;-0.470;2023-04-03T01:37:08;11;10;
39955;PMS5003;25631;51.516;-0.470;2023-04-03T01:39:45;11;10;
39955;PMS5003;25631;51.516;-0.470;2023-04-03T01:42:21;12;11;
39955;PMS5003;25631;51.516;-0.470;2023-04-03T01:44:58;12;11;
39955;PMS5003;25631;51.516;-0.470;2023-04-03T01:47:34;12;10;
39955;PMS5003;25631;51.516;-0.470;2023-04-03T01:50:11;11;10;
39955;PMS5003;25631;51.516;-0.470;2023-04-03T01:52:47;11;10;
39955;PMS5003;25631;51.516;-0.470;2023-04-03T01:55:24;10;9;
39955;PMS5003;25631;51.516;-0.470;2023-04-03T01:58:00;9;8;
39955;PMS5003;25631;51.516;-0.470;2023-04-03T02:00:36;9;8;
39955;PMS5003;25631;51.516;-0.470;2023-04-03T02:03:13;9;8;
39955;PMS5003;25631;51.516;-0.470;2023-04-03T02:05:50;8;7;
39955;PMS5003;25631;51.516;-0.470;2023-04-03T02:08:27;11;8;
39955;PMS5003;25631;51.516;-0.470;2023-04-03T02:11:03;12;10;
39955;PMS5003;25631;51.516;-0.470;2023-04-03T02:13:41;12;10;
39955;PMS5003;25631;51.516;-0.470;2023-04-03T02:16:17;13;10;
39955;PMS5003;25631;51.516;-0.470;2023-04-03T02:18:54;14;11;
39955;PMS5003;25631;51.516;-0.470;2023-04-03T02:21:30;11;9;
39955;PMS5003;25631;51.516;-0.470;2023-04-03T02:24:07;12;10;
39955;PMS5003;25631;51.516;-0.470;2023-04-03T02:26:44;13;11;
39955;PMS5003;25631;51.516;-0.470;2023-04-03T02:29:20;14;12;
39955;PMS5003;25631;51.516;-0.470;2023-04-03T02:31:57;16;13;
39955;PMS5003;25631;51.516;-0.470;2023-04-03T02:34:33;15;13;
39955;PMS5003;25631;51.516;-0.470;2023-04-03T02:37:10;14;12;
39955;PMS5003;25631;51.516;-0.470;2023-04-03T02:39:47;12;11;
39955;PMS5003;25631;51.516;-0.470;2023-04-03T02:42:23;10;9;
39955;PMS5003;25631;51.516;-0.470;2023-04-03T02:45:00;10;9;
39955;PMS5003;25631;51.516;-0.470;2023-04-03T02:47:36;10;10;
39955;PMS5003;25631;51.516;-0.470;2023-04-03T02:50:13;11;10;
39955;PMS5003;25631;51.516;-0.470;2023-04-03T02:52:49;12;11;
39955;PMS5003;25631;51.516;-0.470;2023-04-03T02:55:26;12;12;
39955;PMS5003;25631;51.516;-0.470;2023-04-03T02:58:02;11;9;
39955;PMS5003;25631;51.516;-0.470;2023-04-03T03:00:39;11;9;
39955;PMS5003;25631;51.516;-0.470;2023-04-03T03:03:15;11;9;
39955;PMS5003;25631;51.516;-0.470;2023-04-03T03:06:00;10;9;
39955;PMS5003;25631;51.516;-0.470;2023-04-03T03:08:37;9;9;
39955;PMS5003;25631;51.516;-0.470;2023-04-03T03:11:15;12;10;
39955;PMS5003;25631;51.516;-0.470;2023-04-03T03:13:51;13;10;
39955;PMS5003;25631;51.516;-0.470;2023-04-03T03:16:28;14;10;
39955;PMS5003;25631;51.516;-0.470;2023-04-03T03:19:04;18;11;
39955;PMS5003;25631;51.516;-0.470;2023-04-03T03:21:41;17;11;
39955;PMS5003;25631;51.516;-0.470;2023-04-03T03:24:18;16;11;
39955;PMS5003;25631;51.516;-0.470;2023-04-03T03:26:55;17;13;
39955;PMS5003;25631;51.516;-0.470;2023-04-03T03:29:31;15;11;
39955;PMS5003;25631;51.516;-0.470;2023-04-03T03:32:08;10;9;
39955;PMS5003;25631;51.516;-0.470;2023-04-03T03:34:44;12;11;
39955;PMS5003;25631;51.516;-0.470;2023-04-03T03:37:21;12;10;
39955;PMS5003;25631;51.516;-0.470;2023-04-03T03:39:57;11;10;
39955;PMS5003;25631;51.516;-0.470;2023-04-03T03:42:34;10;9;
39955;PMS5003;25631;51.516;-0.470;2023-04-03T03:45:10;9;8;
39955;PMS5003;25631;51.516;-0.470;2023-04-03T03:47:46;8;8;
39955;PMS5003;25631;51.516;-0.470;2023-04-03T03:50:23;9;8;
39955;PMS5003;25631;51.516;-0.470;2023-04-03T03:52:59;8;8;
39955;PMS5003;25631;51.516;-0.470;2023-04-03T03:55:36;9;9;
39955;PMS5003;25631;51.516;-0.470;2023-04-03T03:58:12;10;10;
39955;PMS5003;25631;51.516;-0.470;2023-04-03T04:00:49;10;9;
39955;PMS5003;25631;51.516;-0.470;2023-04-03T04:03:25;9;9;
39955;PMS5003;25631;51.516;-0.470;2023-04-03T04:06:02;11;11;
39955;PMS5003;25631;51.516;-0.470;2023-04-03T04:08:39;15;11;
39955;PMS5003;25631;51.516;-0.470;2023-04-03T04:11:15;15;11;
39955;PMS5003;25631;51.516;-0.470;2023-04-03T04:13:52;15;10;
39955;PMS5003;25631;51.516;-0.470;2023-04-03T04:16:29;15;11;
39955;PMS5003;25631;51.516;-0.470;2023-04-03T04:19:05;14;10;
39955;PMS5003;25631;51.516;-0.470;2023-04-03T04:21:42;10;9;
39955;PMS5003;25631;51.516;-0.470;2023-04-03T04:24:19;9;9;
39955;PMS5003;25631;51.516;-0.470;2023-04-03T04:26:55;9;9;
39955;PMS5003;25631;51.516;-0.470;2023-04-03T04:29:31;9;9;
39955;PMS5003;25631;51.516;-0.470;2023-04-03T04:32:08;8;8;
39955;PMS5003;25631;51.516;-0.470;2023-04-03T04:34:45;8;8;
39955;PMS5003;25631;51.516;-0.470;2023-04-03T04:37:21;11;10;
39955;PMS5003;25631;51.516;-0.470;2023-04-03T04:39:57;17;15;
39955;PMS5003;25631;51.516;-0.470;2023-04-03T04:42:34;17;15;
39955;PMS5003;25631;51.516;-0.470;2023-04-03T04:45:10;18;16;
39955;PMS5003;25631;51.516;-0.470;2023-04-03T04:47:47;16;12;
39955;PMS5003;25631;51.516;-0.470;2023-04-03T04:50:23;17;12;
39955;PMS5003;25631;51.516;-0.470;2023-04-03T04:53:00;12;10;
39955;PMS5003;25631;51.516;-0.470;2023-04-03T04:55:36;12;9;
39955;PMS5003;25631;51.516;-0.470;2023-04-03T04:58:13;11;9;
39955;PMS5003;25631;51.516;-0.470;2023-04-03T05:00:49;10;9;
39955;PMS5003;25631;51.516;-0.470;2023-04-03T05:03:33;12;11;
39955;PMS5003;25631;51.516;-0.470;2023-04-03T05:06:10;14;14;
39955;PMS5003;25631;51.516;-0.470;2023-04-03T05:08:47;15;14;
39955;PMS5003;25631;51.516;-0.470;2023-04-03T05:11:23;14;14;
39955;PMS5003;25631;51.516;-0.470;2023-04-03T05:14:00;15;14;
39955;PMS5003;25631;51.516;-0.470;2023-04-03T05:16:37;14;14;
39955;PMS5003;25631;51.516;-0.470;2023-04-03T05:19:14;11;11;
39955;PMS5003;25631;51.516;-0.470;2023-04-03T05:21:51;11;11;
39955;PMS5003;25631;51.516;-0.470;2023-04-03T05:24:27;12;12;
39955;PMS5003;25631;51.516;-0.470;2023-04-03T05:27:04;11;11;
39955;PMS5003;25631;51.516;-0.470;2023-04-03T05:29:41;11;11;
39955;PMS5003;25631;51.516;-0.470;2023-04-03T05:32:17;13;11;
39955;PMS5003;25631;51.516;-0.470;2023-04-03T05:34:54;13;11;
39955;PMS5003;25631;51.516;-0.470;2023-04-03T05:37:30;12;10;
39955;PMS5003;25631;51.516;-0.470;2023-04-03T05:40:07;13;11;
39955;PMS5003;25631;51.516;-0.470;2023-04-03T05:42:44;13;10;
39955;PMS5003;25631;51.516;-0.470;2023-04-03T05:45:21;10;10;
39955;PMS5003;25631;51.516;-0.470;2023-04-03T05:47:58;10;9;
39955;PMS5003;25631;51.516;-0.470;2023-04-03T05:50:34;10;9;
39955;PMS5003;25631;51.516;-0.470;2023-04-03T05:53:12;8;8;
39955;PMS5003;25631;51.516;-0.470;2023-04-03T05:55:53;6;6;
39955;PMS5003;25631;51.516;-0.470;2023-04-03T05:58:30;7;7;
39955;PMS5003;25631;51.516;-0.470;2023-04-03T06:01:06;8;8;
39955;PMS5003;25631;51.516;-0.470;2023-04-03T06:03:43;9;8;
39955;PMS5003;25631;51.516;-0.470;2023-04-03T06:06:19;9;8;
39955;PMS5003;25631;51.516;-0.470;2023-04-03T06:08:56;10;9;
39955;PMS5003;25631;51.516;-0.470;2023-04-03T06:11:32;11;9;
39955;PMS5003;25631;51.516;-0.470;2023-04-03T06:14:09;13;11;
39955;PMS5003;25631;51.516;-0.470;2023-04-03T06:16:46;13;11;
39955;PMS5003;25631;51.516;-0.470;2023-04-03T06:19:23;13;11;
39955;PMS5003;25631;51.516;-0.470;2023-04-03T06:21:59;14;11;
39955;PMS5003;25631;51.516;-0.470;2023-04-03T06:24:36;13;11;
39955;PMS5003;25631;51.516;-0.470;2023-04-03T06:27:13;11;10;
39955;PMS5003;25631;51.516;-0.470;2023-04-03T06:29:50;11;9;
39955;PMS5003;25631;51.516;-0.470;2023-04-03T06:32:26;11;9;
39955;PMS5003;25631;51.516;-0.470;2023-04-03T06:35:03;10;9;
39955;PMS5003;25631;51.516;-0.470;2023-04-03T06:37:40;8;8;
39955;PMS5003;25631;51.516;-0.470;2023-04-03T06:40:18;9;8;
39955;PMS5003;25631;51.516;-0.470;2023-04-03T06:42:57;9;9;
39955;PMS5003;25631;51.516;-0.470;2023-04-03T06:45:33;11;9;
39955;PMS5003;25631;51.516;-0.470;2023-04-03T06:48:10;12;10;
39955;PMS5003;25631;51.516;-0.470;2023-04-03T06:50:46;13;11;
39955;PMS5003;25631;51.516;-0.470;2023-04-03T06:53:23;14;13;
39955;PMS5003;25631;51.516;-0.470;2023-04-03T06:55:59;16;15;
39955;PMS5003;25631;51.516;-0.470;2023-04-03T06:58:36;14;13;
39955;PMS5003;25631;51.516;-0.470;2023-04-03T07:01:13;15;14;
39955;PMS5003;25631;51.516;-0.470;2023-04-03T07:03:51;14;13;
39955;PMS5003;25631;51.516;-0.470;2023-04-03T07:06:28;13;11;
39955;PMS5003;25631;51.516;-0.470;2023-04-03T07:09:05;11;9;
39955;PMS5003;25631;51.516;-0.470;2023-04-03T07:11:41;10;9;
39955;PMS5003;25631;51.516;-0.470;2023-04-03T07:14:18;8;7;
39955;PMS5003;25631;51.516;-0.470;2023-04-03T07:16:54;8;8;
39955;PMS5003;25631;51.516;-0.470;2023-04-03T07:19:31;7;7;
39955;PMS5003;25631;51.516;-0.470;2023-04-03T07:22:08;7;7;
39955;PMS5003;25631;51.516;-0.470;2023-04-03T07:24:44;9;8;
39955;PMS5003;25631;51.516;-0.470;2023-04-03T07:27:21;9;8;
39955;PMS5003;25631;51.516;-0.470;2023-04-03T07:29:58;10;8;
39955;PMS5003;25631;51.516;-0.470;2023-04-03T07:32:34;10;8;
39955;PMS5003;25631;51.516;-0.470;2023-04-03T07:35:11;9;8;
39955;PMS5003;25631;51.516;-0.470;2023-04-03T07:37:48;7;7;
39955;PMS5003;25631;51.516;-0.470;2023-04-03T07:40:24;7;7;
39955;PMS5003;25631;51.516;-0.470;2023-04-03T07:43:01;7;6;
39955;PMS5003;25631;51.516;-0.470;2023-04-03T07:45:38;8;7;
39955;PMS5003;25631;51.516;-0.470;2023-04-03T07:48:15;9;9;
39955;PMS5003;25631;51.516;-0.470;2023-04-03T07:50:52;11;9;
39955;PMS5003;25631;51.516;-0.470;2023-04-03T07:53:29;12;10;
39955;PMS5003;25631;51.516;-0.470;2023-04-03T07:56:06;12;10;
39955;PMS5003;25631;51.516;-0.470;2023-04-03T07:58:46;10;8;
39955;PMS5003;25631;51.516;-0.470;2023-04-03T08:01:23;11;9;
39955;PMS5003;25631;51.516;-0.470;2023-04-03T08:03:59;11;9;
39955;PMS5003;25631;51.516;-0.470;2023-04-03T08:06:36;11;9;
39955;PMS5003;25631;51.516;-0.470;2023-04-03T08:09:13;10;7;
39955;PMS5003;25631;51.516;-0.470;2023-04-03T08:11:50;11;8;
39955;PMS5003;25631;51.516;-0.470;2023-04-03T08:14:26;10;7;
39955;PMS5003;25631;51.516;-0.470;2023-04-03T08:17:06;9;8;
39955;PMS5003;25631;51.516;-0.470;2023-04-03T08:19:42;11;9;
39955;PMS5003;25631;51.516;-0.470;2023-04-03T08:22:19;11;10;
39955;PMS5003;25631;51.516;-0.470;2023-04-03T08:24:55;10;9;
39955;PMS5003;25631;51.516;-0.470;2023-04-03T08:27:32;11;9;
39955;PMS5003;25631;51.516;-0.470;2023-04-03T08:30:09;13;10;
39955;PMS5003;25631;51.516;-0.470;2023-04-03T08:32:47;12;9;
39955;PMS5003;25631;51.516;-0.470;2023-04-03T08:35:24;9;7;
39955;PMS5003;25631;51.516;-0.470;2023-04-03T08:37:59;14;10;
39955;PMS5003;25631;51.516;-0.470;2023-04-03T08:40:35;13;9;
39955;PMS5003;25631;51.516;-0.470;2023-04-03T08:43:18;12;10;
39955;PMS5003;25631;51.516;-0.470;2023-04-03T08:46:05;13;11;
39955;PMS5003;25631;51.516;-0.470;2023-04-03T08:48:45;13;11;
39955;PMS5003;25631;51.516;-0.470;2023-04-03T08:51:23;10;9;
39955;PMS5003;25631;51.516;-0.470;2023-04-03T08:54:02;9;9;
39955;PMS5003;25631;51.516;-0.470;2023-04-03T08:56:49;8;7;
39955;PMS5003;25631;51.516;-0.470;2023-04-03T08:59:28;8;7;
39955;PMS5003;25631;51.516;-0.470;2023-04-03T09:02:16;8;8;
39955;PMS5003;25631;51.516;-0.470;2023-04-03T09:04:59;7;7;
39955;PMS5003;25631;51.516;-0.470;2023-04-03T09:07:37;7;7;
39955;PMS5003;25631;51.516;-0.470;2023-04-03T09:10:18;8;8;
39955;PMS5003;25631;51.516;-0.470;2023-04-03T09:13:00;8;7;
39955;PMS5003;25631;51.516;-0.470;2023-04-03T09:15:40;8;7;
39955;PMS5003;25631;51.516;-0.470;2023-04-03T09:18:19;8;7;
39955;PMS5003;25631;51.516;-0.470;2023-04-03T09:21:01;8;7;
39955;PMS5003;25631;51.516;-0.470;2023-04-03T09:23:47;8;7;
39955;PMS5003;25631;51.516;-0.470;2023-04-03T09:26:28;8;8;
39955;PMS5003;25631;51.516;-0.470;2023-04-03T09:29:07;9;9;
39955;PMS5003;25631;51.516;-0.470;2023-04-03T09:31:50;9;9;
39955;PMS5003;25631;51.516;-0.470;2023-04-03T09:34:32;11;9;
39955;PMS5003;25631;51.516;-0.470;2023-04-03T09:37:36;10;9;
39955;PMS5003;25631;51.516;-0.470;2023-04-03T09:40:32;9;8;
39955;PMS5003;25631;51.516;-0.470;2023-04-03T09:43:26;7;6;
39955;PMS5003;25631;51.516;-0.470;2023-04-03T09:46:18;6;6;
39955;PMS5003;25631;51.516;-0.470;2023-04-03T09:49:02;7;6;
39955;PMS5003;25631;51.516;-0.470;2023-04-03T09:51:41;8;7;
39955;PMS5003;25631;51.516;-0.470;2023-04-03T09:54:30;7;6;
39955;PMS5003;25631;51.516;-0.470;2023-04-03T09:57:10;9;7;
39955;PMS5003;25631;51.516;-0.470;2023-04-03T09:59:56;9;7;
39955;PMS5003;25631;51.516;-0.470;2023-04-03T10:02:36;10;9;
39955;PMS5003;25631;51.516;-0.470;2023-04-03T10:05:25;9;9;
39955;PMS5003;25631;51.516;-0.470;2023-04-03T10:08:09;9;9;
39955;PMS5003;25631;51.516;-0.470;2023-04-03T10:11:27;11;10;
39955;PMS5003;25631;51.516;-0.470;2023-04-03T10:14:03;10;9;
39955;PMS5003;25631;51.516;-0.470;2023-04-03T10:16:41;10;9;
39955;PMS5003;25631;51.516;-0.470;2023-04-03T10:19:30;10;10;
39955;PMS5003;25631;51.516;-0.470;2023-04-03T10:22:16;10;10;
39955;PMS5003;25631;51.516;-0.470;2023-04-03T10:25:00;10;10;
39955;PMS5003;25631;51.516;-0.470;2023-04-03T10:27:46;12;10;
39955;PMS5003;25631;51.516;-0.470;2023-04-03T10:30:29;10;9;
39955;PMS5003;25631;51.516;-0.470;2023-04-03T10:33:18;11;9;
39955;PMS5003;25631;51.516;-0.470;2023-04-03T10:36:09;9;8;
39955;PMS5003;25631;51.516;-0.470;2023-04-03T10:38:55;9;8;
39955;PMS5003;25631;51.516;-0.470;2023-04-03T10:41:41;9;8;
39955;PMS5003;25631;51.516;-0.470;2023-04-03T10:44:30;9;8;
39955;PMS5003;25631;51.516;-0.470;2023-04-03T10:47:15;10;9;
39955;PMS5003;25631;51.516;-0.470;2023-04-03T10:49:59;12;11;
39955;PMS5003;25631;51.516;-0.470;2023-04-03T10:52:46;13;11;
39955;PMS5003;25631;51.516;-0.470;2023-04-03T10:55:34;12;10;
39955;PMS5003;25631;51.516;-0.470;2023-04-03T10:58:24;9;9;
39955;PMS5003;25631;51.516;-0.470;2023-04-03T11:01:07;9;9;
39955;PMS5003;25631;51.516;-0.470;2023-04-03T11:03:46;9;9;
39955;PMS5003;25631;51.516;-0.470;2023-04-03T11:06:26;9;9;
39955;PMS5003;25631;51.516;-0.470;2023-04-03T11:09:13;10;10;
39955;PMS5003;25631;51.516;-0.470;2023-04-03T11:11:55;9;9;
39955;PMS5003;25631;51.516;-0.470;2023-04-03T11:14:37;9;8;
39955;PMS5003;25631;51.516;-0.470;2023-04-03T11:17:22;9;8;
39955;PMS5003;25631;51.516;-0.470;2023-04-03T11:20:06;8;6;
39955;PMS5003;25631;51.516;-0.470;2023-04-03T11:22:51;11;8;
39955;PMS5003;25631;51.516;-0.470;2023-04-03T11:25:33;10;7;
39955;PMS5003;25631;51.516;-0.470;2023-04-03T11:28:13;10;7;
39955;PMS5003;25631;51.516;-0.470;2023-04-03T11:30:51;11;7;
39955;PMS5003;25631;51.516;-0.470;2023-04-03T11:33:41;9;7;
39955;PMS5003;25631;51.516;-0.470;2023-04-03T11:36:26;8;7;
39955;PMS5003;25631;51.516;-0.470;2023-04-03T11:39:07;8;7;
39955;PMS5003;25631;51.516;-0.470;2023-04-03T11:41:53;10;8;
39955;PMS5003;25631;51.516;-0.470;2023-04-03T11:44:33;9;9;
39955;PMS5003;25631;51.516;-0.470;2023-04-03T11:47:11;9;7;
39955;PMS5003;25631;51.516;-0.470;2023-04-03T11:50:51;10;8;
39955;PMS5003;25631;51.516;-0.470;2023-04-03T11:53:31;10;8;
39955;PMS5003;25631;51.516;-0.470;2023-04-03T11:56:41;9;7;
39955;PMS5003;25631;51.516;-0.470;2023-04-03T11:59:23;8;7;
39955;PMS5003;25631;51.516;-0.470;2023-04-03T12:02:00;8;7;
39955;PMS5003;25631;51.516;-0.470;2023-04-03T12:04:37;6;6;
39955;PMS5003;25631;51.516;-0.470;2023-04-03T12:07:15;6;6;
39955;PMS5003;25631;51.516;-0.470;2023-04-03T12:09:57;7;7;
39955;PMS5003;25631;51.516;-0.470;2023-04-03T12:12:37;7;7;
39955;PMS5003;25631;51.516;-0.470;2023-04-03T12:15:20;5;5;
39955;PMS5003;25631;51.516;-0.470;2023-04-03T12:18:25;7;7;
39955;PMS5003;25631;51.516;-0.470;2023-04-03T12:22:11;6;6;
39955;PMS5003;25631;51.516;-0.470;2023-04-03T12:24:50;7;7;
39955;PMS5003;25631;51.516;-0.470;2023-04-03T12:27:29;7;7;
39955;PMS5003;25631;51.516;-0.470;2023-04-03T12:30:15;7;6;
39955;PMS5003;25631;51.516;-0.470;2023-04-03T12:33:10;7;6;
39955;PMS5003;25631;51.516;-0.470;2023-04-03T12:35:57;6;6;
39955;PMS5003;25631;51.516;-0.470;2023-04-03T12:38:51;5;5;
39955;PMS5003;25631;51.516;-0.470;2023-04-03T12:42:00;7;7;
39955;PMS5003;25631;51.516;-0.470;2023-04-03T12:44:49;7;7;
39955;PMS5003;25631;51.516;-0.470;2023-04-03T12:47:35;8;8;
39955;PMS5003;25631;51.516;-0.470;2023-04-03T12:50:17;8;8;
39955;PMS5003;25631;51.516;-0.470;2023-04-03T12:52:59;7;7;
39955;PMS5003;25631;51.516;-0.470;2023-04-03T12:55:37;7;7;
39955;PMS5003;25631;51.516;-0.470;2023-04-03T12:58:16;8;8;
39955;PMS5003;25631;51.516;-0.470;2023-04-03T13:00:59;10;9;
39955;PMS5003;25631;51.516;-0.470;2023-04-03T13:03:37;10;9;
39955;PMS5003;25631;51.516;-0.470;2023-04-03T13:06:17;11;10;
39955;PMS5003;25631;51.516;-0.470;2023-04-03T13:08:56;9;8;
39955;PMS5003;25631;51.516;-0.470;2023-04-03T13:11:34;8;7;
39955;PMS5003;25631;51.516;-0.470;2023-04-03T13:14:16;7;6;
39955;PMS5003;25631;51.516;-0.470;2023-04-03T13:16:55;8;7;
39955;PMS5003;25631;51.516;-0.470;2023-04-03T13:19:33;11;10;
39955;PMS5003;25631;51.516;-0.470;2023-04-03T13:22:15;12;12;
39955;PMS5003;25631;51.516;-0.470;2023-04-03T13:25:00;12;12;
39955;PMS5003;25631;51.516;-0.470;2023-04-03T13:27:42;11;10;
39955;PMS5003;25631;51.516;-0.470;2023-04-03T13:30:20;9;8;
39955;PMS5003;25631;51.516;-0.470;2023-04-03T13:33:02;9;8;
39955;PMS5003;25631;51.516;-0.470;2023-04-03T13:35:41;7;6;
39955;PMS5003;25631;51.516;-0.470;2023-04-03T13:38:22;7;6;
39955;PMS5003;25631;51.516;-0.470;2023-04-03T13:41:01;8;6;
39955;PMS5003;25631;51.516;-0.470;2023-04-03T13:43:40;7;5;
39955;PMS5003;25631;51.516;-0.470;2023-04-03T13:46:25;5;5;
39955;PMS5003;25631;51.516;-0.470;2023-04-03T13:49:09;6;5;
39955;PMS5003;25631;51.516;-0.470;2023-04-03T13:51:55;6;6;
39955;PMS5003;25631;51.516;-0.470;2023-04-03T13:54:33;9;9;
39955;PMS5003;25631;51.516;-0.470;2023-04-03T13:57:12;12;12;
39955;PMS5003;25631;51.516;-0.470;2023-04-03T13:59:50;13;13;
39955;PMS5003;25631;51.516;-0.470;2023-04-03T14:02:30;15;14;
39955;PMS5003;25631;51.516;-0.470;2023-04-03T14:05:07;15;15;
39955;PMS5003;25631;51.516;-0.470;2023-04-03T14:07:44;15;14;
39955;PMS5003;25631;51.516;-0.470;2023-04-03T14:10:20;15;12;
39955;PMS5003;25631;51.516;-0.470;2023-04-03T14:12:57;16;12;
39955;PMS5003;25631;51.516;-0.470;2023-04-03T14:15:34;14;10;
39955;PMS5003;25631;51.516;-0.470;2023-04-03T14:18:11;14;10;
39955;PMS5003;25631;51.516;-0.470;2023-04-03T14:20:49;12;9;
39955;PMS5003;25631;51.516;-0.470;2023-04-03T14:23:26;12;10;
39955;PMS5003;25631;51.516;-0.470;2023-04-03T14:26:02;9;7;
39955;PMS5003;25631;51.516;-0.470;2023-04-03T14:28:40;7;6;
39955;PMS5003;25631;51.516;-0.470;2023-04-03T14:31:18;7;5;
39955;PMS5003;25631;51.516;-0.470;2023-04-03T14:33:55;8;6;
39955;PMS5003;25631;51.516;-0.470;2023-04-03T14:36:32;6;5;
39955;PMS5003;25631;51.516;-0.470;2023-04-03T14:39:10;10;8;
39955;PMS5003;25631;51.516;-0.470;2023-04-03T14:41:51;10;8;
39955;PMS5003;25631;51.516;-0.470;2023-04-03T14:44:28;10;9;
39955;PMS5003;25631;51.516;-0.470;2023-04-03T14:47:04;10;10;
39955;PMS5003;25631;51.516;-0.470;2023-04-03T14:49:44;11;9;
39955;PMS5003;25631;51.516;-0.470;2023-04-03T14:52:22;9;8;
39955;PMS5003;25631;51.516;-0.470;2023-04-03T14:55:00;10;8;
39955;PMS5003;25631;51.516;-0.470;2023-04-03T14:57:41;10;8;
39955;PMS5003;25631;51.516;-0.470;2023-04-03T15:00:19;13;9;
39955;PMS5003;25631;51.516;-0.470;2023-04-03T15:02:57;13;10;
39955;PMS5003;25631;51.516;-0.470;2023-04-03T15:05:35;13;9;
39955;PMS5003;25631;51.516;-0.470;2023-04-03T15:08:16;12;9;
39955;PMS5003;25631;51.516;-0.470;2023-04-03T15:10:55;9;9;
39955;PMS5003;25631;51.516;-0.470;2023-04-03T15:13:32;8;8;
39955;PMS5003;25631;51.516;-0.470;2023-04-03T15:16:12;8;7;
39955;PMS5003;25631;51.516;-0.470;2023-04-03T15:18:51;8;8;
39955;PMS5003;25631;51.516;-0.470;2023-04-03T15:21:29;9;9;
39955;PMS5003;25631;51.516;-0.470;2023-04-03T15:24:06;9;8;
39955;PMS5003;25631;51.516;-0.470;2023-04-03T15:26:44;9;9;
39955;PMS5003;25631;51.516;-0.470;2023-04-03T15:29:20;10;9;
39955;PMS5003;25631;51.516;-0.470;2023-04-03T15:31:57;9;8;
39955;PMS5003;25631;51.516;-0.470;2023-04-03T15:34:33;7;7;
39955;PMS5003;25631;51.516;-0.470;2023-04-03T15:37:10;9;7;
39955;PMS5003;25631;51.516;-0.470;2023-04-03T15:39:46;10;7;
39955;PMS5003;25631;51.516;-0.470;2023-04-03T15:42:23;12;9;
39955;PMS5003;25631;51.516;-0.470;2023-04-03T15:45:00;10;9;
39955;PMS5003;25631;51.516;-0.470;2023-04-03T15:47:36;10;7;
39955;PMS5003;25631;51.516;-0.470;2023-04-03T15:50:13;8;6;
39955;PMS5003;25631;51.516;-0.470;2023-04-03T15:52:50;8;6;
39955;PMS5003;25631;51.516;-0.470;2023-04-03T15:55:29;7;5;
39955;PMS5003;25631;51.516;-0.470;2023-04-03T15:58:07;7;5;
39955;PMS5003;25631;51.516;-0.470;2023-04-03T16:00:44;6;5;
39955;PMS5003;25631;51.516;-0.470;2023-04-03T16:03:21;10;6;
39955;PMS5003;25631;51.516;-0.470;2023-04-03T16:05:57;10;6;
39955;PMS5003;25631;51.516;-0.470;2023-04-03T16:08:34;11;7;
39955;PMS5003;25631;51.516;-0.470;2023-04-03T16:11:11;12;8;
39955;PMS5003;25631;51.516;-0.470;2023-04-03T16:13:47;12;7;
39955;PMS5003;25631;51.516;-0.470;2023-04-03T16:16:24;8;7;
39955;PMS5003;25631;51.516;-0.470;2023-04-03T16:19:01;9;8;
39955;PMS5003;25631;51.516;-0.470;2023-04-03T16:21:37;8;8;
39955;PMS5003;25631;51.516;-0.470;2023-04-03T16:24:14;8;7;
39955;PMS5003;25631;51.516;-0.470;2023-04-03T16:26:51;9;7;
39955;PMS5003;25631;51.516;-0.470;2023-04-03T16:29:27;9;8;
39955;PMS5003;25631;51.516;-0.470;2023-04-03T16:32:04;10;8;
39955;PMS5003;25631;51.516;-0.470;2023-04-03T16:34:40;9;7;
39955;PMS5003;25631;51.516;-0.470;2023-04-03T16:37:17;8;7;
39955;PMS5003;25631;51.516;-0.470;2023-04-03T16:39:54;7;7;
39955;PMS5003;25631;51.516;-0.470;2023-04-03T16:42:30;7;7;
39955;PMS5003;25631;51.516;-0.470;2023-04-03T16:45:07;7;7;
39955;PMS5003;25631;51.516;-0.470;2023-04-03T16:47:44;7;7;
39955;PMS5003;25631;51.516;-0.470;2023-04-03T16:50:20;8;7;
39955;PMS5003;25631;51.516;-0.470;2023-04-03T16:52:57;8;8;
39955;PMS5003;25631;51.516;-0.470;2023-04-03T16:55:34;8;7;
39955;PMS5003;25631;51.516;-0.470;2023-04-03T16:58:11;7;7;
39955;PMS5003;25631;51.516;-0.470;2023-04-03T17:00:47;8;7;
39955;PMS5003;25631;51.516;-0.470;2023-04-03T17:03:24;8;8;
39955;PMS5003;25631;51.516;-0.470;2023-04-03T17:06:00;8;8;
39955;PMS5003;25631;51.516;-0.470;2023-04-03T17:08:37;9;9;
39955;PMS5003;25631;51.516;-0.470;2023-04-03T17:11:13;9;9;
39955;PMS5003;25631;51.516;-0.470;2023-04-03T17:13:50;8;8;
39955;PMS5003;25631;51.516;-0.470;2023-04-03T17:16:27;9;8;
39955;PMS5003;25631;51.516;-0.470;2023-04-03T17:19:04;9;7;
39955;PMS5003;25631;51.516;-0.470;2023-04-03T17:21:42;8;6;
39955;PMS5003;25631;51.516;-0.470;2023-04-03T17:24:19;8;6;
39955;PMS5003;25631;51.516;-0.470;2023-04-03T17:26:56;9;6;
39955;PMS5003;25631;51.516;-0.470;2023-04-03T17:29:32;7;5;
39955;PMS5003;25631;51.516;-0.470;2023-04-03T17:32:09;8;6;
39955;PMS5003;25631;51.516;-0.470;2023-04-03T17:34:46;10;8;
39955;PMS5003;25631;51.516;-0.470;2023-04-03T17:37:23;11;9;
39955;PMS5003;25631;51.516;-0.470;2023-04-03T17:39:59;11;9;
39955;PMS5003;25631;51.516;-0.470;2023-04-03T17:42:35;10;9;